createdAt,value
2023-01-08T00:00:01.049Z,10.57
2023-01-08T00:01:34.259Z,9.48
2023-01-08T00:03:07.580Z,11.15
2023-01-08T00:04:40.704Z,10.23
2023-01-08T00:06:16.296Z,9.60
2023-01-08T00:07:50.871Z,8.98
2023-01-08T00:09:24.091Z,9.15
2023-01-08T00:10:57.445Z,8.52
2023-01-08T00:12:30.703Z,8.75
2023-01-08T00:14:04.522Z,9.45
2023-01-08T00:15:37.633Z,7.22
2023-01-08T00:17:10.851Z,8.65
2023-01-08T00:18:45.273Z,7.95
2023-01-08T00:20:17.798Z,8.35
2023-01-08T00:21:50.921Z,7.50
2023-01-08T00:23:25.616Z,8.55
2023-01-08T00:24:58.863Z,8.90
2023-01-08T00:26:32.513Z,8.88
2023-01-08T00:28:04.793Z,8.10
2023-01-08T00:29:38.139Z,7.43
2023-01-08T00:31:13.113Z,6.43
2023-01-08T00:32:46.342Z,8.80
2023-01-08T00:34:19.543Z,8.13
2023-01-08T00:35:52.773Z,7.93
2023-01-08T00:37:26.140Z,8.75
2023-01-08T00:39:01.362Z,8.38
2023-01-08T00:40:34.733Z,8.75
2023-01-08T00:42:07.913Z,7.45
2023-01-08T00:43:41.282Z,6.13
2023-01-08T00:45:13.619Z,6.88
2023-01-08T00:46:46.818Z,8.32
2023-01-08T00:48:19.909Z,7.07
2023-01-08T00:49:53.327Z,8.00
2023-01-08T00:51:29.254Z,7.50
2023-01-08T00:53:03.679Z,8.25
2023-01-08T00:54:38.340Z,10.85
2023-01-08T00:56:12.454Z,8.05
2023-01-08T00:57:45.660Z,10.07
2023-01-08T00:59:18.888Z,11.02
2023-01-08T01:00:52.165Z,7.53
2023-01-08T01:02:25.578Z,7.20
2023-01-08T01:03:58.828Z,6.95
2023-01-08T01:05:32.028Z,7.30
2023-01-08T01:07:05.246Z,7.05
2023-01-08T01:08:37.437Z,6.97
2023-01-08T01:10:13.824Z,6.80
2023-01-08T01:11:46.980Z,6.53
2023-01-08T01:13:20.175Z,7.72
2023-01-08T01:14:52.474Z,7.32
2023-01-08T01:16:26.457Z,7.63
2023-01-08T01:17:59.845Z,7.55
2023-01-08T01:19:33.043Z,7.60
2023-01-08T01:21:11.804Z,8.25
2023-01-08T01:22:45.138Z,8.15
2023-01-08T01:24:18.422Z,7.45
2023-01-08T01:25:54.561Z,7.55
2023-01-08T01:27:27.829Z,6.00
2023-01-08T01:29:01.665Z,6.45
2023-01-08T01:30:35.803Z,10.93
2023-01-08T01:32:10.166Z,11.50
2023-01-08T01:33:42.608Z,13.30
2023-01-08T01:35:15.910Z,12.05
2023-01-08T01:36:48.084Z,12.13
2023-01-08T01:38:21.259Z,12.02
2023-01-08T01:39:56.170Z,10.40
2023-01-08T01:41:32.596Z,11.68
2023-01-08T01:43:04.776Z,12.70
2023-01-08T01:44:41.956Z,14.52
2023-01-08T01:46:23.707Z,14.27
2023-01-08T01:47:59.816Z,13.05
2023-01-08T01:49:34.038Z,14.48
2023-01-08T01:51:07.642Z,13.82
2023-01-08T01:52:43.800Z,14.32
2023-01-08T01:54:19.000Z,15.10
2023-01-08T01:55:52.730Z,15.57
2023-01-08T01:57:27.406Z,19.52
2023-01-08T01:59:00.872Z,16.45
2023-01-08T02:00:36.146Z,20.17
2023-01-08T02:02:10.140Z,22.17
2023-01-08T02:03:43.461Z,29.85
2023-01-08T02:05:16.734Z,25.02
2023-01-08T02:07:00.009Z,22.05
2023-01-08T02:08:41.384Z,11.13
2023-01-08T02:10:20.363Z,12.07
2023-01-08T02:12:14.574Z,11.68
2023-01-08T02:13:56.914Z,12.15
2023-01-08T02:15:40.054Z,12.95
2023-01-08T02:17:19.555Z,13.57
2023-01-08T02:18:58.578Z,9.65
2023-01-08T02:20:36.506Z,7.18
2023-01-08T02:22:22.555Z,6.85
2023-01-08T02:24:04.375Z,6.60
2023-01-08T02:25:55.032Z,7.07
2023-01-08T02:27:31.680Z,7.65
2023-01-08T02:29:08.217Z,7.45
2023-01-08T02:30:43.352Z,7.47
2023-01-08T02:32:17.407Z,6.90
2023-01-08T02:33:50.733Z,6.07
2023-01-08T02:35:23.850Z,6.63
2023-01-08T02:36:58.327Z,6.03
2023-01-08T02:38:32.749Z,6.32
2023-01-08T02:40:15.039Z,6.50
2023-01-08T02:42:06.803Z,5.80
2023-01-08T02:43:45.010Z,6.10
2023-01-08T02:45:29.786Z,5.78
2023-01-08T02:47:06.946Z,6.90
2023-01-08T02:48:44.816Z,6.25
2023-01-08T02:50:25.527Z,6.35
2023-01-08T02:52:01.749Z,7.25
2023-01-08T02:53:38.723Z,7.82
2023-01-08T02:55:12.251Z,7.82
2023-01-08T02:56:50.885Z,7.55
2023-01-08T02:58:29.065Z,7.40
2023-01-08T03:00:01.292Z,7.13
2023-01-08T03:01:36.106Z,6.13
2023-01-08T03:03:13.829Z,6.72
2023-01-08T03:05:08.764Z,6.82
2023-01-08T03:06:42.346Z,6.63
2023-01-08T03:08:15.751Z,7.13
2023-01-08T03:09:48.173Z,9.00
2023-01-08T03:11:23.264Z,10.40
2023-01-08T03:13:01.317Z,9.70
2023-01-08T03:14:39.859Z,7.38
2023-01-08T03:16:17.763Z,7.15
2023-01-08T03:17:55.200Z,6.93
2023-01-08T03:19:33.985Z,6.45
2023-01-08T03:21:08.122Z,7.00
2023-01-08T03:22:42.957Z,7.13
2023-01-08T03:24:20.120Z,7.68
2023-01-08T03:25:53.361Z,7.90
2023-01-08T03:27:31.232Z,9.45
2023-01-08T03:29:07.232Z,9.68
2023-01-08T03:30:44.056Z,8.35
2023-01-08T03:32:20.103Z,7.20
2023-01-08T03:33:54.952Z,8.20
2023-01-08T03:35:29.672Z,7.22
2023-01-08T03:37:07.714Z,8.70
2023-01-08T03:38:46.331Z,8.00
2023-01-08T03:40:23.115Z,8.88
2023-01-08T03:42:01.128Z,10.63
2023-01-08T03:43:34.635Z,8.38
2023-01-08T03:45:08.024Z,8.15
2023-01-08T03:46:49.077Z,9.52
2023-01-08T03:48:23.527Z,10.10
2023-01-08T03:49:58.833Z,9.57
2023-01-08T03:51:40.924Z,8.65
2023-01-08T03:53:14.486Z,9.27
2023-01-08T03:54:46.653Z,8.43
2023-01-08T03:56:19.900Z,8.98
2023-01-08T03:57:53.002Z,8.38
2023-01-08T03:59:26.622Z,9.35
2023-01-08T04:00:59.869Z,8.43
2023-01-08T04:02:34.528Z,8.88
2023-01-08T04:04:08.844Z,8.73
2023-01-08T04:05:42.051Z,8.73
2023-01-08T04:07:15.324Z,17.77
2023-01-08T04:08:49.161Z,15.98
2023-01-08T04:10:22.290Z,12.93
2023-01-08T04:11:55.557Z,9.75
2023-01-08T04:13:28.702Z,8.63
2023-01-08T04:15:00.862Z,8.60
2023-01-08T04:16:34.827Z,9.15
2023-01-08T04:18:09.403Z,8.75
2023-01-08T04:19:42.677Z,11.40
2023-01-08T04:21:16.161Z,10.80
2023-01-08T04:22:48.349Z,12.35
2023-01-08T04:24:21.801Z,9.80
2023-01-08T04:25:55.239Z,8.27
2023-01-08T04:27:29.075Z,9.07
2023-01-08T04:29:03.556Z,6.80
2023-01-08T04:30:36.764Z,8.70
2023-01-08T04:32:09.853Z,6.63
2023-01-08T04:33:44.649Z,6.40
2023-01-08T04:35:17.886Z,6.53
2023-01-08T04:36:50.982Z,6.13
2023-01-08T04:38:24.138Z,5.90
2023-01-08T04:39:57.464Z,7.63
2023-01-08T04:41:30.622Z,6.90
2023-01-08T04:43:03.880Z,7.22
2023-01-08T04:44:37.032Z,7.85
2023-01-08T04:46:10.346Z,7.18
2023-01-08T04:47:43.525Z,7.63
2023-01-08T04:49:18.418Z,6.88
2023-01-08T04:50:51.756Z,7.63
2023-01-08T04:52:25.387Z,6.97
2023-01-08T04:53:58.945Z,7.00
2023-01-08T04:55:31.342Z,7.60
2023-01-08T04:57:04.532Z,15.90
2023-01-08T04:58:38.080Z,18.33
2023-01-08T05:00:12.715Z,15.38
2023-01-08T05:01:46.013Z,17.00
2023-01-08T05:03:19.355Z,16.17
2023-01-08T05:04:54.058Z,17.27
2023-01-08T05:06:28.255Z,19.50
2023-01-08T05:08:01.643Z,19.40
2023-01-08T05:09:34.801Z,22.50
2023-01-08T05:11:10.899Z,23.38
2023-01-08T05:12:44.138Z,27.48
2023-01-08T05:14:17.461Z,25.40
2023-01-08T05:15:49.788Z,31.65
2023-01-08T05:17:23.048Z,24.55
2023-01-08T05:18:56.188Z,19.42
2023-01-08T05:20:31.124Z,19.55
2023-01-08T05:22:04.264Z,22.98
2023-01-08T05:23:37.704Z,23.85
2023-01-08T05:25:11.208Z,22.42
2023-01-08T05:26:44.804Z,22.73
2023-01-08T05:28:17.928Z,26.35
2023-01-08T05:29:51.849Z,27.27
2023-01-08T05:31:25.012Z,30.52
2023-01-08T05:32:58.228Z,16.02
2023-01-08T05:34:31.416Z,11.38
2023-01-08T05:36:08.591Z,8.07
2023-01-08T05:37:41.716Z,7.45
2023-01-08T05:39:14.960Z,6.93
2023-01-08T05:40:48.155Z,7.05
2023-01-08T05:42:21.564Z,7.32
2023-01-08T05:43:54.798Z,10.25
2023-01-08T05:45:28.350Z,16.60
2023-01-08T05:47:01.507Z,31.75
2023-01-08T05:48:37.409Z,28.98
2023-01-08T05:50:11.368Z,8.30
2023-01-08T05:51:45.865Z,7.20
2023-01-08T05:53:19.029Z,9.00
2023-01-08T05:54:52.735Z,7.47
2023-01-08T05:56:25.891Z,7.30
2023-01-08T05:58:01.481Z,6.55
2023-01-08T05:59:34.594Z,6.03
2023-01-08T06:01:10.633Z,5.88
2023-01-08T06:02:46.600Z,5.93
2023-01-08T06:04:19.852Z,6.13
2023-01-08T06:05:53.045Z,6.13
2023-01-08T06:07:27.844Z,6.32
2023-01-08T06:09:00.948Z,8.10
2023-01-08T06:10:34.141Z,10.82
2023-01-08T06:12:07.975Z,8.55
2023-01-08T06:13:43.970Z,8.38
2023-01-08T06:15:17.213Z,7.32
2023-01-08T06:16:50.674Z,7.97
2023-01-08T06:18:23.867Z,11.38
2023-01-08T06:19:57.143Z,8.77
2023-01-08T06:21:30.234Z,10.48
2023-01-08T06:23:03.887Z,11.60
2023-01-08T06:24:37.014Z,10.68
2023-01-08T06:26:10.187Z,9.57
2023-01-08T06:27:43.308Z,9.00
2023-01-08T06:29:16.791Z,7.10
2023-01-08T06:31:10.512Z,10.30
2023-01-08T06:32:44.287Z,7.97
2023-01-08T06:34:17.532Z,7.60
2023-01-08T06:35:50.721Z,7.50
2023-01-08T06:37:24.339Z,11.40
2023-01-08T06:38:59.624Z,11.77
2023-01-08T06:40:33.904Z,13.25
2023-01-08T06:42:07.204Z,16.85
2023-01-08T06:43:41.122Z,21.00
2023-01-08T06:45:15.033Z,21.80
2023-01-08T06:46:49.585Z,17.35
2023-01-08T06:48:23.270Z,23.63
2023-01-08T06:49:56.515Z,11.50
2023-01-08T06:51:29.970Z,11.20
2023-01-08T06:53:03.461Z,11.43
2023-01-08T06:54:38.733Z,16.08
2023-01-08T06:56:12.313Z,11.82
2023-01-08T06:57:45.459Z,10.52
2023-01-08T06:59:17.871Z,9.50
2023-01-08T07:00:51.418Z,10.23
2023-01-08T07:02:25.748Z,10.63
2023-01-08T07:04:00.118Z,12.63
2023-01-08T07:05:36.566Z,12.77
2023-01-08T07:07:09.945Z,14.55
2023-01-08T07:08:44.623Z,14.98
2023-01-08T07:10:20.250Z,17.70
2023-01-08T07:11:53.811Z,18.77
2023-01-08T07:13:27.960Z,13.50
2023-01-08T07:15:01.456Z,19.00
2023-01-08T07:16:34.847Z,21.65
2023-01-08T07:18:09.079Z,18.75
2023-01-08T07:19:43.566Z,19.50
2023-01-08T07:21:18.105Z,21.30
2023-01-08T07:22:51.241Z,21.25
2023-01-08T07:24:24.901Z,22.65
2023-01-08T07:26:03.283Z,22.42
2023-01-08T07:27:36.869Z,21.08
2023-01-08T07:29:10.317Z,21.58
2023-01-08T07:30:45.064Z,23.75
2023-01-08T07:32:18.555Z,24.58
2023-01-08T07:33:51.850Z,24.02
2023-01-08T07:35:25.096Z,19.00
2023-01-08T07:36:58.765Z,18.58
2023-01-08T07:38:32.864Z,15.85
2023-01-08T07:40:08.030Z,16.02
2023-01-08T07:41:44.463Z,17.92
2023-01-08T07:43:17.809Z,18.45
2023-01-08T07:44:51.402Z,22.63
2023-01-08T07:46:25.285Z,19.17
2023-01-08T07:47:59.313Z,20.95
2023-01-08T07:49:39.155Z,18.05
2023-01-08T07:51:12.484Z,20.90
2023-01-08T07:52:45.763Z,19.05
2023-01-08T07:54:19.639Z,22.33
2023-01-08T07:56:01.358Z,19.90
2023-01-08T07:57:39.060Z,18.52
2023-01-08T07:59:12.450Z,21.83
2023-01-08T08:00:45.725Z,18.77
2023-01-08T08:02:19.028Z,22.33
2023-01-08T08:03:52.962Z,23.17
2023-01-08T08:05:26.518Z,19.27
2023-01-08T08:06:59.991Z,20.10
2023-01-08T08:08:33.196Z,22.25
2023-01-08T08:10:07.699Z,19.20
2023-01-08T08:11:41.143Z,19.02
2023-01-08T08:13:16.147Z,19.30
2023-01-08T08:14:49.865Z,19.77
2023-01-08T08:16:23.149Z,19.75
2023-01-08T08:17:56.633Z,20.00
2023-01-08T08:19:30.022Z,20.83
2023-01-08T08:21:06.353Z,21.70
2023-01-08T08:22:39.443Z,18.40
2023-01-08T08:24:12.742Z,19.63
2023-01-08T08:25:45.992Z,20.33
2023-01-08T08:27:19.581Z,20.63
2023-01-08T08:28:54.340Z,20.88
2023-01-08T08:30:28.627Z,21.73
2023-01-08T08:32:01.774Z,21.65
2023-01-08T08:33:35.034Z,20.73
2023-01-08T08:35:08.751Z,20.27
2023-01-08T08:36:42.043Z,21.70
2023-01-08T08:38:15.614Z,17.95
2023-01-08T08:39:53.248Z,21.65
2023-01-08T08:41:29.618Z,24.23
2023-01-08T08:43:05.554Z,20.08
2023-01-08T08:44:43.096Z,20.00
2023-01-08T08:46:16.963Z,21.05
2023-01-08T08:47:50.116Z,21.63
2023-01-08T08:49:23.358Z,18.38
2023-01-08T08:50:56.669Z,15.88
2023-01-08T08:52:31.272Z,15.98
2023-01-08T08:54:05.210Z,15.40
2023-01-08T08:55:38.416Z,16.35
2023-01-08T08:57:12.319Z,15.75
2023-01-08T08:58:46.894Z,18.40
2023-01-08T09:00:22.046Z,19.13
2023-01-08T09:01:55.381Z,19.63
2023-01-08T09:03:29.037Z,21.35
2023-01-08T09:05:02.258Z,30.48
2023-01-08T09:06:35.562Z,25.48
2023-01-08T09:08:09.735Z,18.35
2023-01-08T09:09:43.013Z,19.27
2023-01-08T09:11:16.231Z,20.92
2023-01-08T09:12:49.627Z,15.48
2023-01-08T09:14:23.655Z,18.63
2023-01-08T09:16:00.800Z,19.55
2023-01-08T09:17:34.601Z,19.38
2023-01-08T09:19:08.575Z,19.70
2023-01-08T09:20:42.631Z,21.02
2023-01-08T09:22:15.890Z,21.92
2023-01-08T09:23:50.156Z,24.20
2023-01-08T09:25:23.289Z,24.63
2023-01-08T09:26:57.409Z,23.10
2023-01-08T09:28:31.339Z,20.25
2023-01-08T09:30:05.772Z,17.75
2023-01-08T09:31:40.881Z,19.13
2023-01-08T09:33:15.089Z,18.15
2023-01-08T09:34:56.524Z,16.95
2023-01-08T09:36:30.948Z,15.35
2023-01-08T09:38:04.800Z,15.02
2023-01-08T09:39:38.025Z,16.23
2023-01-08T09:41:15.013Z,17.05
2023-01-08T09:42:55.323Z,17.10
2023-01-08T09:44:32.714Z,18.15
2023-01-08T09:46:08.966Z,21.45
2023-01-08T09:47:45.507Z,20.17
2023-01-08T09:49:25.709Z,21.67
2023-01-08T09:51:00.594Z,21.00
2023-01-08T09:52:34.354Z,21.08
2023-01-08T09:54:08.292Z,25.67
2023-01-08T09:55:42.649Z,22.42
2023-01-08T09:57:18.835Z,25.80
2023-01-08T09:58:54.175Z,39.67
2023-01-08T10:00:30.391Z,33.55
2023-01-08T10:02:05.566Z,29.38
2023-01-08T10:03:43.617Z,27.92
2023-01-08T10:05:19.806Z,26.98
2023-01-08T10:06:57.568Z,23.00
2023-01-08T10:08:30.910Z,25.15
2023-01-08T10:10:04.252Z,24.27
2023-01-08T10:11:43.533Z,25.55
2023-01-08T10:13:17.494Z,28.13
2023-01-08T10:14:52.547Z,29.25
2023-01-08T10:16:32.081Z,30.83
2023-01-08T10:18:07.769Z,26.52
2023-01-08T10:19:41.469Z,31.17
2023-01-08T10:21:15.776Z,27.45
2023-01-08T10:22:54.334Z,24.70
2023-01-08T10:24:39.733Z,34.90
2023-01-08T10:26:12.917Z,26.60
2023-01-08T10:27:52.351Z,25.35
2023-01-08T10:29:26.587Z,23.42
2023-01-08T10:31:10.369Z,25.35
2023-01-08T10:32:48.910Z,24.42
2023-01-08T10:34:32.920Z,24.40
2023-01-08T10:36:10.069Z,23.63
2023-01-08T10:37:44.877Z,23.67
2023-01-08T10:39:22.866Z,22.95
2023-01-08T10:40:57.821Z,19.90
2023-01-08T10:42:36.445Z,19.48
2023-01-08T10:44:17.862Z,21.88
2023-01-08T10:46:03.162Z,20.20
2023-01-08T10:47:38.428Z,19.40
2023-01-08T10:49:19.950Z,18.83
2023-01-08T10:50:53.323Z,17.02
2023-01-08T10:52:31.729Z,16.67
2023-01-08T10:54:15.873Z,18.13
2023-01-08T10:55:59.115Z,21.63
2023-01-08T10:57:32.943Z,20.50
2023-01-08T10:59:06.238Z,18.60
2023-01-08T11:00:39.832Z,16.58
2023-01-08T11:02:22.597Z,16.02
2023-01-08T11:03:59.834Z,14.40
2023-01-08T11:05:35.235Z,14.10
2023-01-08T11:07:20.399Z,12.82
2023-01-08T11:08:55.882Z,13.05
2023-01-08T11:10:30.731Z,17.73
2023-01-08T11:12:05.896Z,13.45
2023-01-08T11:13:39.858Z,14.85
2023-01-08T11:15:35.689Z,13.38
2023-01-08T11:17:12.635Z,14.27
2023-01-08T11:18:49.833Z,14.65
2023-01-08T11:20:25.485Z,15.95
2023-01-08T11:22:01.089Z,14.48
2023-01-08T11:23:34.266Z,13.65
2023-01-08T11:25:14.628Z,12.00
2023-01-08T11:26:52.409Z,57.58
2023-01-08T11:28:35.002Z,23.05
2023-01-08T11:30:14.702Z,14.60
2023-01-08T11:31:55.443Z,12.70
2023-01-08T11:33:32.335Z,12.73
2023-01-08T11:35:14.648Z,10.07
2023-01-08T11:36:52.299Z,10.38
2023-01-08T11:38:25.608Z,7.15
2023-01-08T11:39:58.967Z,6.47
2023-01-08T11:41:47.596Z,7.65
2023-01-08T11:43:35.604Z,9.55
2023-01-08T11:45:19.108Z,8.48
2023-01-08T11:47:00.998Z,9.35
2023-01-08T11:48:51.311Z,8.35
2023-01-08T11:50:29.555Z,11.30
2023-01-08T11:52:18.801Z,10.75
2023-01-08T11:54:03.952Z,10.98
2023-01-08T11:55:51.043Z,9.93
2023-01-08T11:57:35.421Z,6.70
2023-01-08T11:59:20.392Z,7.78
2023-01-08T12:01:04.241Z,7.57
2023-01-08T12:02:52.567Z,7.40
2023-01-08T12:04:53.378Z,8.52
2023-01-08T12:06:39.342Z,12.98
2023-01-08T12:08:20.819Z,9.95
2023-01-08T12:10:01.570Z,11.57
2023-01-08T12:11:41.970Z,12.00
2023-01-08T12:13:54.766Z,10.10
2023-01-08T12:15:48.857Z,13.50
2023-01-08T12:17:56.169Z,13.85
2023-01-08T12:19:42.536Z,11.13
2023-01-08T12:21:22.689Z,10.95
2023-01-08T12:23:06.770Z,10.90
2023-01-08T12:24:58.894Z,8.85
2023-01-08T12:26:40.651Z,9.65
2023-01-08T12:28:33.811Z,12.20
2023-01-08T12:30:19.216Z,13.45
2023-01-08T12:32:14.779Z,12.80
2023-01-08T12:33:53.167Z,16.17
2023-01-08T12:35:30.698Z,15.23
2023-01-08T12:37:13.432Z,17.33
2023-01-08T12:38:54.596Z,16.75
2023-01-08T12:40:33.519Z,14.30
2023-01-08T12:42:12.360Z,11.73
2023-01-08T12:43:52.453Z,11.10
2023-01-08T12:45:29.324Z,11.95
2023-01-08T12:47:06.855Z,12.27
2023-01-08T12:48:40.931Z,13.18
2023-01-08T12:50:28.643Z,13.77
2023-01-08T12:52:10.270Z,17.20
2023-01-08T12:53:56.112Z,16.10
2023-01-08T12:55:41.771Z,18.92
2023-01-08T12:57:22.449Z,17.10
2023-01-08T12:59:06.565Z,20.25
2023-01-08T13:00:42.932Z,25.83
2023-01-08T13:02:33.880Z,17.60
2023-01-08T13:04:10.552Z,13.50
2023-01-08T13:05:44.901Z,8.68
2023-01-08T13:07:21.553Z,7.47
2023-01-08T13:09:01.530Z,7.13
2023-01-08T13:10:40.042Z,7.15
2023-01-08T13:12:16.600Z,5.72
2023-01-08T13:13:49.914Z,6.90
2023-01-08T13:15:26.261Z,6.53
2023-01-08T13:17:05.622Z,6.57
2023-01-08T13:18:40.341Z,6.72
2023-01-08T13:20:23.068Z,8.18
2023-01-08T13:21:58.877Z,7.47
2023-01-08T13:23:35.262Z,6.82
2023-01-08T13:25:32.344Z,6.75
2023-01-08T13:27:24.228Z,7.35
2023-01-08T13:29:08.203Z,9.52
2023-01-08T13:30:43.371Z,9.95
2023-01-08T13:32:28.157Z,8.95
2023-01-08T13:34:02.771Z,13.32
2023-01-08T13:35:36.356Z,8.48
2023-01-08T13:37:19.660Z,7.85
2023-01-08T13:39:02.627Z,4.80
2023-01-08T13:40:53.552Z,7.00
2023-01-08T13:42:28.815Z,6.43
2023-01-08T13:44:05.350Z,5.40
2023-01-08T13:45:38.896Z,5.93
2023-01-08T13:47:21.379Z,6.45
2023-01-08T13:49:01.469Z,9.77
2023-01-08T13:50:38.862Z,10.02
2023-01-08T13:52:32.834Z,8.68
2023-01-08T13:54:17.322Z,7.78
2023-01-08T13:55:58.316Z,13.02
2023-01-08T13:57:39.127Z,9.50
2023-01-08T13:59:28.106Z,6.95
2023-01-08T14:01:03.157Z,9.90
2023-01-08T14:02:44.744Z,10.48
2023-01-08T14:04:22.062Z,13.63
2023-01-08T14:06:07.655Z,11.80
2023-01-08T14:07:40.875Z,6.88
2023-01-08T14:09:22.732Z,7.22
2023-01-08T14:10:56.319Z,8.73
2023-01-08T14:12:29.677Z,5.47
2023-01-08T14:14:03.446Z,7.57
2023-01-08T14:15:37.076Z,5.30
2023-01-08T14:17:17.689Z,6.68
2023-01-08T14:18:52.167Z,8.80
2023-01-08T14:20:32.514Z,6.50
2023-01-08T14:22:17.069Z,8.88
2023-01-08T14:23:52.776Z,7.40
2023-01-08T14:25:26.528Z,6.93
2023-01-08T14:27:01.903Z,6.40
2023-01-08T14:28:35.834Z,11.13
2023-01-08T14:30:17.406Z,9.75
2023-01-08T14:31:53.282Z,10.80
2023-01-08T14:33:32.332Z,11.68
2023-01-08T14:35:09.529Z,10.10
2023-01-08T14:36:44.053Z,10.18
2023-01-08T14:38:19.414Z,13.40
2023-01-08T14:39:56.523Z,10.60
2023-01-08T14:41:49.626Z,13.48
2023-01-08T14:43:23.604Z,14.38
2023-01-08T14:44:58.404Z,19.08
2023-01-08T14:46:32.056Z,20.85
2023-01-08T14:48:12.958Z,28.17
2023-01-08T14:49:53.356Z,22.88
2023-01-08T14:51:29.242Z,23.27
2023-01-08T14:53:08.374Z,16.02
2023-01-08T14:54:47.597Z,16.90
2023-01-08T14:56:23.751Z,9.57
2023-01-08T14:57:58.287Z,12.02
2023-01-08T14:59:34.864Z,20.27
2023-01-08T15:01:15.121Z,9.55
2023-01-08T15:02:50.670Z,11.45
2023-01-08T15:04:25.068Z,8.52
2023-01-08T15:06:01.697Z,12.80
2023-01-08T15:07:35.330Z,10.68
2023-01-08T15:09:22.467Z,10.23
2023-01-08T15:11:04.728Z,7.03
2023-01-08T15:12:38.191Z,9.00
2023-01-08T15:14:14.794Z,10.00
2023-01-08T15:15:56.276Z,11.20
2023-01-08T15:17:30.163Z,11.23
2023-01-08T15:19:08.783Z,11.65
2023-01-08T15:20:46.038Z,15.32
2023-01-08T15:22:22.185Z,17.92
2023-01-08T15:23:58.048Z,17.33
2023-01-08T15:25:32.038Z,15.88
2023-01-08T15:27:10.706Z,22.65
2023-01-08T15:28:53.026Z,36.33
2023-01-08T15:30:29.720Z,42.80
2023-01-08T15:32:12.251Z,39.70
2023-01-08T15:33:46.188Z,34.28
2023-01-08T15:35:20.291Z,38.85
2023-01-08T15:36:53.485Z,22.63
2023-01-08T15:38:26.789Z,21.67
2023-01-08T15:40:00.822Z,20.13
2023-01-08T15:41:53.935Z,72.25
2023-01-08T15:43:28.494Z,32.33
2023-01-08T15:45:01.632Z,34.85
2023-01-08T15:46:35.357Z,21.20
2023-01-08T15:48:09.904Z,25.80
2023-01-08T15:49:43.052Z,26.92
2023-01-08T15:51:16.694Z,27.55
2023-01-08T15:52:49.263Z,31.58
2023-01-08T15:54:26.613Z,12.43
2023-01-08T15:55:59.756Z,20.05
2023-01-08T15:57:38.651Z,27.98
2023-01-08T15:59:15.512Z,18.73
2023-01-08T16:00:48.903Z,21.25
2023-01-08T16:02:22.822Z,18.55
2023-01-08T16:03:56.242Z,23.33
2023-01-08T16:05:33.190Z,17.38
2023-01-08T16:07:06.605Z,24.10
2023-01-08T16:08:39.740Z,30.70
2023-01-08T16:10:13.295Z,32.70
2023-01-08T16:11:46.999Z,34.15
2023-01-08T16:13:20.582Z,35.17
2023-01-08T16:14:57.676Z,39.60
2023-01-08T16:16:31.204Z,36.88
2023-01-08T16:18:04.602Z,34.45
2023-01-08T16:19:38.002Z,40.10
2023-01-08T16:21:12.579Z,38.25
2023-01-08T16:22:46.190Z,31.27
2023-01-08T16:24:19.458Z,34.70
2023-01-08T16:25:52.943Z,28.42
2023-01-08T16:27:26.219Z,26.35
2023-01-08T16:28:59.754Z,29.55
2023-01-08T16:30:34.891Z,24.17
2023-01-08T16:32:08.722Z,29.27
2023-01-08T16:33:41.917Z,31.75
2023-01-08T16:35:16.198Z,36.38
2023-01-08T16:36:49.990Z,29.67
2023-01-08T16:38:25.484Z,30.88
2023-01-08T16:39:58.839Z,25.95
2023-01-08T16:41:32.071Z,31.33
2023-01-08T16:43:05.177Z,22.42
2023-01-08T16:44:39.603Z,25.70
2023-01-08T16:46:16.377Z,20.17
2023-01-08T16:47:49.794Z,24.20
2023-01-08T16:49:23.754Z,19.83
2023-01-08T16:50:57.303Z,22.85
2023-01-08T16:52:30.717Z,22.25
2023-01-08T16:54:04.128Z,25.35
2023-01-08T16:55:38.483Z,24.60
2023-01-08T16:57:12.403Z,27.73
2023-01-08T16:58:47.462Z,29.33
2023-01-08T17:00:22.295Z,27.33
2023-01-08T17:01:56.973Z,28.48
2023-01-08T17:03:30.971Z,41.45
2023-01-08T17:05:04.357Z,43.00
2023-01-08T17:06:38.695Z,44.80
2023-01-08T17:08:15.954Z,43.22
2023-01-08T17:09:49.577Z,39.92
2023-01-08T17:11:25.208Z,34.45
2023-01-08T17:12:58.397Z,30.73
2023-01-08T17:14:31.989Z,30.80
2023-01-08T17:16:06.057Z,32.05
2023-01-08T17:17:40.819Z,32.30
2023-01-08T17:19:14.201Z,30.63
2023-01-08T17:20:53.549Z,32.83
2023-01-08T17:22:27.397Z,27.10
2023-01-08T17:24:00.663Z,32.13
2023-01-08T17:25:33.797Z,33.50
2023-01-08T17:27:07.039Z,40.70
2023-01-08T17:28:41.634Z,40.25
2023-01-08T17:30:15.678Z,40.22
2023-01-08T17:31:49.197Z,41.97
2023-01-08T17:33:23.816Z,34.70
2023-01-08T17:34:57.670Z,36.50
2023-01-08T17:36:32.531Z,32.50
2023-01-08T17:38:05.891Z,33.03
2023-01-08T17:39:39.173Z,37.42
2023-01-08T17:41:32.941Z,37.20
2023-01-08T17:43:05.101Z,34.85
2023-01-08T17:44:38.368Z,33.35
2023-01-08T17:46:11.617Z,35.00
2023-01-08T17:47:45.152Z,31.33
2023-01-08T17:49:20.157Z,32.80
2023-01-08T17:50:53.453Z,31.13
2023-01-08T17:52:27.350Z,32.05
2023-01-08T17:54:03.068Z,29.10
2023-01-08T17:55:37.252Z,29.02
2023-01-08T17:57:12.252Z,29.33
2023-01-08T17:58:45.903Z,27.70
2023-01-08T18:00:20.742Z,25.33
2023-01-08T18:01:54.441Z,25.15
2023-01-08T18:03:28.244Z,26.40
2023-01-08T18:05:02.994Z,28.70
2023-01-08T18:06:36.685Z,37.70
2023-01-08T18:08:10.056Z,39.05
2023-01-08T18:09:44.113Z,39.72
2023-01-08T18:11:17.752Z,40.83
2023-01-08T18:12:51.306Z,37.70
2023-01-08T18:14:25.062Z,35.90
2023-01-08T18:16:03.348Z,88.88
2023-01-08T18:17:37.034Z,43.28
2023-01-08T18:19:10.873Z,40.95
2023-01-08T18:20:45.619Z,40.78
2023-01-08T18:22:19.244Z,34.80
2023-01-08T18:23:52.810Z,26.25
2023-01-08T18:25:26.344Z,23.42
2023-01-08T18:26:59.800Z,21.25
2023-01-08T18:28:33.639Z,21.95
2023-01-08T18:30:08.517Z,24.30
2023-01-08T18:31:44.311Z,23.30
2023-01-08T18:33:19.091Z,24.60
2023-01-08T18:34:52.467Z,22.77
2023-01-08T18:36:27.693Z,21.85
2023-01-08T18:38:01.080Z,24.48
2023-01-08T18:39:34.782Z,23.70
2023-01-08T18:41:09.261Z,19.25
2023-01-08T18:42:41.566Z,19.13
2023-01-08T18:44:15.999Z,21.08
2023-01-08T18:45:49.654Z,19.23
2023-01-08T18:47:23.861Z,19.20
2023-01-08T18:48:57.558Z,19.92
2023-01-08T18:50:31.512Z,22.83
2023-01-08T18:52:06.545Z,21.95
2023-01-08T18:53:39.919Z,23.80
2023-01-08T18:55:13.785Z,32.13
2023-01-08T18:56:48.271Z,34.85
2023-01-08T18:58:21.795Z,33.95
2023-01-08T18:59:55.251Z,31.45
2023-01-08T19:01:29.323Z,52.03
2023-01-08T19:03:09.530Z,39.60
2023-01-08T19:04:42.814Z,41.70
2023-01-08T19:06:17.629Z,32.53
2023-01-08T19:07:52.536Z,29.63
2023-01-08T19:09:26.190Z,28.42
2023-01-08T19:10:59.447Z,27.30
2023-01-08T19:12:32.719Z,28.55
2023-01-08T19:14:06.257Z,28.00
2023-01-08T19:15:40.334Z,24.50
2023-01-08T19:17:14.078Z,26.50
2023-01-08T19:18:47.742Z,28.98
2023-01-08T19:20:21.242Z,29.35
2023-01-08T19:21:55.144Z,41.90
2023-01-08T19:23:30.678Z,63.92
2023-01-08T19:25:03.961Z,31.35
2023-01-08T19:26:38.464Z,24.92
2023-01-08T19:28:12.079Z,26.17
2023-01-08T19:29:45.387Z,27.02
2023-01-08T19:31:19.965Z,18.50
2023-01-08T19:32:53.192Z,17.45
2023-01-08T19:34:26.744Z,17.38
2023-01-08T19:36:02.475Z,19.70
2023-01-08T19:37:35.859Z,16.17
2023-01-08T19:39:11.435Z,17.05
2023-01-08T19:40:45.322Z,20.17
2023-01-08T19:42:45.165Z,19.48
2023-01-08T19:44:18.889Z,15.15
2023-01-08T19:45:52.460Z,16.30
2023-01-08T19:47:26.075Z,16.98
2023-01-08T19:49:00.251Z,18.10
2023-01-08T19:50:34.507Z,16.85
2023-01-08T19:52:08.147Z,14.00
2023-01-08T19:53:42.221Z,13.25
2023-01-08T19:55:19.353Z,13.07
2023-01-08T19:56:52.716Z,12.52
2023-01-08T19:58:29.037Z,13.65
2023-01-08T20:00:02.807Z,12.73
2023-01-08T20:01:45.154Z,12.38
2023-01-08T20:03:21.549Z,15.48
2023-01-08T20:04:54.967Z,14.77
2023-01-08T20:06:29.470Z,14.80
2023-01-08T20:08:02.701Z,17.42
2023-01-08T20:09:38.669Z,17.33
2023-01-08T20:11:15.437Z,21.55
2023-01-08T20:12:48.713Z,18.20
2023-01-08T20:14:21.959Z,16.90
2023-01-08T20:15:57.638Z,16.52
2023-01-08T20:17:31.068Z,20.38
2023-01-08T20:19:05.352Z,19.77
2023-01-08T20:20:38.514Z,16.95
2023-01-08T20:22:11.756Z,17.58
2023-01-08T20:23:46.334Z,17.60
2023-01-08T20:25:19.887Z,15.30
2023-01-08T20:26:54.657Z,16.33
2023-01-08T20:28:27.858Z,15.98
2023-01-08T20:30:01.811Z,16.40
2023-01-08T20:31:35.638Z,16.27
2023-01-08T20:33:08.780Z,19.17
2023-01-08T20:34:42.319Z,18.80
2023-01-08T20:36:17.650Z,19.90
2023-01-08T20:37:50.797Z,17.08
2023-01-08T20:39:24.089Z,15.75
2023-01-08T20:40:57.328Z,16.67
2023-01-08T20:42:34.506Z,16.13
2023-01-08T20:44:07.889Z,15.32
2023-01-08T20:45:42.440Z,16.15
2023-01-08T20:47:16.305Z,16.63
2023-01-08T20:48:49.597Z,17.23